createdAt,value
2023-05-08T00:00:31.519Z,46.80
2023-05-08T00:01:31.488Z,46.80
2023-05-08T00:02:31.559Z,46.60
2023-05-08T00:03:31.744Z,46.30
2023-05-08T00:04:31.495Z,46.09
2023-05-08T00:05:31.427Z,45.71
2023-05-08T00:06:31.442Z,45.31
2023-05-08T00:07:31.404Z,44.70
2023-05-08T00:08:31.395Z,44.60
2023-05-08T00:09:31.373Z,44.40
2023-05-08T00:10:31.404Z,44.40
2023-05-08T00:11:31.382Z,44.29
2023-05-08T00:12:31.336Z,44.29
2023-05-08T00:13:31.325Z,43.99
2023-05-08T00:14:31.330Z,43.99
2023-05-08T00:15:31.295Z,43.79
2023-05-08T00:16:31.321Z,43.59
2023-05-08T00:17:31.292Z,42.78
2023-05-08T00:18:31.286Z,42.78
2023-05-08T00:19:31.277Z,42.68
2023-05-08T00:20:31.235Z,42.27
2023-05-08T00:21:31.214Z,42.47
2023-05-08T00:22:31.209Z,41.97
2023-05-08T00:23:31.202Z,42.07
2023-05-08T00:24:31.193Z,42.27
2023-05-08T00:25:31.154Z,42.07
2023-05-08T00:26:31.161Z,42.17
2023-05-08T00:27:31.150Z,41.87
2023-05-08T00:28:31.143Z,42.17
2023-05-08T00:29:31.116Z,41.97
2023-05-08T00:30:31.096Z,42.17
2023-05-08T00:31:31.130Z,41.87
2023-05-08T00:32:31.131Z,41.77
2023-05-08T00:33:31.066Z,42.17
2023-05-08T00:34:31.097Z,42.07
2023-05-08T00:35:31.019Z,41.97
2023-05-08T00:36:31.005Z,41.36
2023-05-08T00:37:31.003Z,40.86
2023-05-08T00:38:30.979Z,40.55
2023-05-08T00:39:31.015Z,40.35
2023-05-08T00:40:30.973Z,40.47
2023-05-08T00:41:30.939Z,40.25
2023-05-08T00:42:30.942Z,40.67
2023-05-08T00:43:30.976Z,40.57
2023-05-08T00:44:30.905Z,40.25
2023-05-08T00:45:30.894Z,40.35
2023-05-08T00:46:30.918Z,40.47
2023-05-08T00:47:30.897Z,39.97
2023-05-08T00:48:30.852Z,40.45
2023-05-08T00:49:30.818Z,40.27
2023-05-08T00:50:30.825Z,40.15
2023-05-08T00:51:30.818Z,39.76
2023-05-08T00:52:30.825Z,39.97
2023-05-08T00:53:30.768Z,39.97
2023-05-08T00:54:30.775Z,39.97
2023-05-08T00:55:30.749Z,40.06
2023-05-08T00:56:30.753Z,40.17
2023-05-08T00:57:30.723Z,39.97
2023-05-08T00:58:30.712Z,39.86
2023-05-08T00:59:30.693Z,39.56
2023-05-08T01:00:30.707Z,39.76
2023-05-08T01:01:30.739Z,39.46
2023-05-08T01:02:30.701Z,39.46
2023-05-08T01:03:30.697Z,39.06
2023-05-08T01:04:31.058Z,38.75
2023-05-08T01:05:30.684Z,39.06
2023-05-08T01:06:30.628Z,38.85
2023-05-08T01:07:30.587Z,38.75
2023-05-08T01:08:30.585Z,38.35
2023-05-08T01:09:30.566Z,38.65
2023-05-08T01:10:30.566Z,38.24
2023-05-08T01:11:30.522Z,38.65
2023-05-08T01:12:30.538Z,38.45
2023-05-08T01:13:30.635Z,38.35
2023-05-08T01:14:30.514Z,38.45
2023-05-08T01:15:30.496Z,38.65
2023-05-08T01:16:30.581Z,38.45
2023-05-08T01:17:30.469Z,38.75
2023-05-08T01:18:30.453Z,38.85
2023-05-08T01:19:30.448Z,38.85
2023-05-08T01:20:30.442Z,38.75
2023-05-08T01:21:30.396Z,38.75
2023-05-08T01:22:30.393Z,38.75
2023-05-08T01:23:30.372Z,39.15
2023-05-08T01:24:30.375Z,38.75
2023-05-08T01:25:30.345Z,39.26
2023-05-08T01:26:30.333Z,39.26
2023-05-08T01:27:30.342Z,39.15
2023-05-08T01:28:30.326Z,38.75
2023-05-08T01:29:30.305Z,39.06
2023-05-08T01:30:30.290Z,39.26
2023-05-08T01:31:30.272Z,39.76
2023-05-08T01:32:30.340Z,39.36
2023-05-08T01:33:30.289Z,39.26
2023-05-08T01:34:30.253Z,39.26
2023-05-08T01:35:30.285Z,38.46
2023-05-08T01:36:30.204Z,38.87
2023-05-08T01:37:30.174Z,38.45
2023-05-08T01:38:30.209Z,38.65
2023-05-08T01:39:30.163Z,38.95
2023-05-08T01:40:30.150Z,39.76
2023-05-08T01:41:30.144Z,39.36
2023-05-08T01:42:30.146Z,39.36
2023-05-08T01:43:30.137Z,39.15
2023-05-08T01:44:30.092Z,38.95
2023-05-08T01:45:30.073Z,39.46
2023-05-08T01:46:30.096Z,39.66
2023-05-08T01:47:30.139Z,40.37
2023-05-08T01:48:30.081Z,40.17
2023-05-08T01:49:30.022Z,40.17
2023-05-08T01:50:30.009Z,40.27
2023-05-08T01:51:29.996Z,40.37
2023-05-08T01:52:30.023Z,40.06
2023-05-08T01:53:29.969Z,40.47
2023-05-08T01:54:29.966Z,40.47
2023-05-08T01:55:29.941Z,40.57
2023-05-08T01:56:29.931Z,40.88
2023-05-08T01:57:29.933Z,40.77
2023-05-08T01:58:29.906Z,40.98
2023-05-08T01:59:29.885Z,40.88
2023-05-08T02:00:29.908Z,41.38
2023-05-08T02:01:29.883Z,41.58
2023-05-08T02:02:29.939Z,42.01
2023-05-08T02:03:29.908Z,42.41
2023-05-08T02:04:29.809Z,41.00
2023-05-08T02:05:29.808Z,42.11
2023-05-08T02:06:29.894Z,42.52
2023-05-08T02:07:29.790Z,43.52
2023-05-08T02:08:29.768Z,43.32
2023-05-08T02:09:29.754Z,43.02
2023-05-08T02:10:29.729Z,43.43
2023-05-08T02:11:29.743Z,43.73
2023-05-08T02:12:29.700Z,44.44
2023-05-08T02:13:29.744Z,44.64
2023-05-08T02:14:29.710Z,44.74
2023-05-08T02:15:29.683Z,45.15
2023-05-08T02:16:29.857Z,45.55
2023-05-08T02:17:29.653Z,45.86
2023-05-08T02:18:29.630Z,46.06
2023-05-08T02:19:29.622Z,45.96
2023-05-08T02:20:29.626Z,45.96
2023-05-08T02:21:29.584Z,45.75
2023-05-08T02:22:29.579Z,45.96
2023-05-08T02:23:29.578Z,46.26
2023-05-08T02:24:29.545Z,46.06
2023-05-08T02:25:29.568Z,45.96
2023-05-08T02:26:29.535Z,46.16
2023-05-08T02:27:29.538Z,46.16
2023-05-08T02:28:29.490Z,46.16
2023-05-08T02:29:29.474Z,46.67
2023-05-08T02:30:29.463Z,46.56
2023-05-08T02:31:29.490Z,46.26
2023-05-08T02:32:29.494Z,46.97
2023-05-08T02:33:29.434Z,47.17
2023-05-08T02:34:29.460Z,47.58
2023-05-08T02:35:29.414Z,46.97
2023-05-08T02:36:29.407Z,47.47
2023-05-08T02:37:29.378Z,47.58
2023-05-08T02:38:29.349Z,47.17
2023-05-08T02:39:29.345Z,47.88
2023-05-08T02:40:29.362Z,48.08
2023-05-08T02:41:29.369Z,48.59
2023-05-08T02:42:29.283Z,48.08
2023-05-08T02:43:29.290Z,48.49
2023-05-08T02:44:29.267Z,48.69
2023-05-08T02:45:29.269Z,48.59
2023-05-08T02:46:29.314Z,49.30
2023-05-08T02:47:29.277Z,48.49
2023-05-08T02:48:29.236Z,48.99
2023-05-08T02:49:29.221Z,48.69
2023-05-08T02:50:29.187Z,48.99
2023-05-08T02:51:29.179Z,48.69
2023-05-08T02:52:29.163Z,48.59
2023-05-08T02:53:29.169Z,48.90
2023-05-08T02:54:29.136Z,48.79
2023-05-08T02:55:29.133Z,49.40
2023-05-08T02:56:29.096Z,48.99
2023-05-08T02:57:29.104Z,49.30
2023-05-08T02:58:29.109Z,48.99
2023-05-08T02:59:29.067Z,48.99
2023-05-08T03:00:29.065Z,48.69
2023-05-08T03:01:29.076Z,49.10
2023-05-08T03:02:29.092Z,49.22
2023-05-08T03:03:29.119Z,49.02
2023-05-08T03:04:29.006Z,48.91
2023-05-08T03:05:28.988Z,48.11
2023-05-08T03:06:28.967Z,48.61
2023-05-08T03:07:28.972Z,47.80
2023-05-08T03:08:28.957Z,47.90
2023-05-08T03:09:28.929Z,47.19
2023-05-08T03:10:28.905Z,47.39
2023-05-08T03:11:28.923Z,46.99
2023-05-08T03:12:28.929Z,46.89
2023-05-08T03:13:28.982Z,47.19
2023-05-08T03:14:28.873Z,47.09
2023-05-08T03:15:28.850Z,47.19
2023-05-08T03:16:28.950Z,47.50
2023-05-08T03:17:28.879Z,47.50
2023-05-08T03:18:28.817Z,47.80
2023-05-08T03:19:28.789Z,48.21
2023-05-08T03:20:28.771Z,47.80
2023-05-08T03:21:28.787Z,47.70
2023-05-08T03:22:28.753Z,48.82
2023-05-08T03:23:28.734Z,48.41
2023-05-08T03:24:28.736Z,49.11
2023-05-08T03:25:28.722Z,49.34
2023-05-08T03:26:28.721Z,49.04
2023-05-08T03:27:28.683Z,49.44
2023-05-08T03:28:28.672Z,49.65
2023-05-08T03:29:28.651Z,49.75
2023-05-08T03:30:28.651Z,49.65
2023-05-08T03:31:28.700Z,49.65
2023-05-08T03:32:28.613Z,50.26
2023-05-08T03:33:28.601Z,50.15
2023-05-08T03:34:28.586Z,50.76
2023-05-08T03:35:28.614Z,50.56
2023-05-08T03:36:28.569Z,50.56
2023-05-08T03:37:28.692Z,50.46
2023-05-08T03:38:28.644Z,50.56
2023-05-08T03:39:28.601Z,51.07
2023-05-08T03:40:28.558Z,51.07
2023-05-08T03:41:28.507Z,51.07
2023-05-08T03:42:28.517Z,51.37
2023-05-08T03:43:28.462Z,51.57
2023-05-08T03:44:28.464Z,51.09
2023-05-08T03:45:28.436Z,51.19
2023-05-08T03:46:28.439Z,50.18
2023-05-08T03:47:28.446Z,49.27
2023-05-08T03:48:28.398Z,49.37
2023-05-08T03:49:28.408Z,48.66
2023-05-08T03:50:28.375Z,48.35
2023-05-08T03:51:28.373Z,48.05
2023-05-08T03:52:28.353Z,47.92
2023-05-08T03:53:28.346Z,48.35
2023-05-08T03:54:28.334Z,48.35
2023-05-08T03:55:28.306Z,48.25
2023-05-08T03:56:28.285Z,48.76
2023-05-08T03:57:28.276Z,48.66
2023-05-08T03:58:28.267Z,48.66
2023-05-08T03:59:28.259Z,48.15
2023-05-08T04:00:28.241Z,48.05
2023-05-08T04:01:28.231Z,47.34
2023-05-08T04:02:28.356Z,46.63
2023-05-08T04:03:28.310Z,46.73
2023-05-08T04:04:28.181Z,46.22
2023-05-08T04:05:28.170Z,45.72
2023-05-08T04:06:30.769Z,45.72
2023-05-08T04:07:28.235Z,45.51
2023-05-08T04:08:28.700Z,45.72
2023-05-08T04:09:28.200Z,45.21
2023-05-08T04:10:28.180Z,45.21
2023-05-08T04:11:28.214Z,44.60
2023-05-08T04:12:28.503Z,44.81
2023-05-08T04:13:28.279Z,44.30
2023-05-08T04:14:28.157Z,44.81
2023-05-08T04:15:28.042Z,44.10
2023-05-08T04:16:28.123Z,44.20
2023-05-08T04:17:28.067Z,44.90
2023-05-08T04:18:27.991Z,43.89
2023-05-08T04:19:27.990Z,44.30
2023-05-08T04:20:27.960Z,44.20
2023-05-08T04:21:27.974Z,44.70
2023-05-08T04:22:27.971Z,45.42
2023-05-08T04:23:27.945Z,45.01
2023-05-08T04:24:27.905Z,45.09
2023-05-08T04:25:27.918Z,45.31
2023-05-08T04:26:27.926Z,45.11
2023-05-08T04:27:27.881Z,44.89
2023-05-08T04:28:27.850Z,44.90
2023-05-08T04:29:27.851Z,44.78
2023-05-08T04:30:27.844Z,44.68
2023-05-08T04:31:27.939Z,44.48
2023-05-08T04:32:27.848Z,44.99
2023-05-08T04:33:27.810Z,45.70
2023-05-08T04:34:27.782Z,45.29
2023-05-08T04:35:27.795Z,45.79
2023-05-08T04:36:27.744Z,46.30
2023-05-08T04:37:27.747Z,46.51
2023-05-08T04:38:27.772Z,45.90
2023-05-08T04:39:27.718Z,46.00
2023-05-08T04:40:27.698Z,45.59
2023-05-08T04:41:27.713Z,45.90
2023-05-08T04:42:27.694Z,46.10
2023-05-08T04:43:27.676Z,46.61
2023-05-08T04:44:27.668Z,46.30
2023-05-08T04:45:27.657Z,47.42
2023-05-08T04:46:27.639Z,46.69
2023-05-08T04:47:27.635Z,46.99
2023-05-08T04:48:27.590Z,46.69
2023-05-08T04:49:27.625Z,46.89
2023-05-08T04:50:27.588Z,47.30
2023-05-08T04:51:27.556Z,49.02
2023-05-08T04:52:27.531Z,48.71
2023-05-08T04:53:27.527Z,48.41
2023-05-08T04:54:27.538Z,49.42
2023-05-08T04:55:27.492Z,48.61
2023-05-08T04:56:27.481Z,48.91
2023-05-08T04:57:27.462Z,49.42
2023-05-08T04:58:27.455Z,49.93
2023-05-08T04:59:27.452Z,50.54
2023-05-08T05:00:27.435Z,50.63
2023-05-08T05:01:27.425Z,50.61
2023-05-08T05:02:27.410Z,51.95
2023-05-08T05:03:27.465Z,53.37
2023-05-08T05:04:27.361Z,52.97
2023-05-08T05:05:27.366Z,53.07
2023-05-08T05:06:27.357Z,53.78
2023-05-08T05:07:27.318Z,53.37
2023-05-08T05:08:27.327Z,53.27
2023-05-08T05:09:27.299Z,53.17
2023-05-08T05:10:27.277Z,53.05
2023-05-08T05:11:27.298Z,52.84
2023-05-08T05:12:27.255Z,52.94
2023-05-08T05:13:27.320Z,53.45
2023-05-08T05:14:27.221Z,53.85
2023-05-08T05:15:27.224Z,54.76
2023-05-08T05:16:27.400Z,55.68
2023-05-08T05:17:27.245Z,57.09
2023-05-08T05:18:27.167Z,56.89
2023-05-08T05:19:27.183Z,56.18
2023-05-08T05:20:27.189Z,55.98
2023-05-08T05:21:27.159Z,56.48
2023-05-08T05:22:27.119Z,56.59
2023-05-08T05:23:27.097Z,57.60
2023-05-08T05:24:27.086Z,57.60
2023-05-08T05:25:27.111Z,59.01
2023-05-08T05:26:27.062Z,58.92
2023-05-08T05:27:27.071Z,60.03
2023-05-08T05:28:27.061Z,59.22
2023-05-08T05:29:27.023Z,60.53
2023-05-08T05:30:27.010Z,60.94
2023-05-08T05:31:27.024Z,61.14
2023-05-08T05:32:27.027Z,61.44
2023-05-08T05:33:26.973Z,61.24
2023-05-08T05:34:26.973Z,61.55
2023-05-08T05:35:26.962Z,60.84
2023-05-08T05:36:26.917Z,60.13
2023-05-08T05:37:26.955Z,60.23
2023-05-08T05:38:26.904Z,60.61
2023-05-08T05:39:26.908Z,60.71
2023-05-08T05:40:26.880Z,60.81
2023-05-08T05:41:26.864Z,60.71
2023-05-08T05:42:26.840Z,60.71
2023-05-08T05:43:27.792Z,61.01
2023-05-08T05:44:37.675Z,61.72
2023-05-08T05:45:26.838Z,61.90
2023-05-08T05:46:26.890Z,63.95
2023-05-08T05:47:34.426Z,65.26
2023-05-08T05:48:34.302Z,66.78
2023-05-08T05:49:26.756Z,66.78
2023-05-08T05:50:26.800Z,66.58
2023-05-08T05:51:26.771Z,66.47
2023-05-08T05:52:27.400Z,65.67
2023-05-08T05:53:26.762Z,66.38
2023-05-08T05:54:26.709Z,65.47
2023-05-08T05:55:26.706Z,64.96
2023-05-08T05:56:26.734Z,65.16
2023-05-08T05:57:26.712Z,65.67
2023-05-08T05:58:26.679Z,65.77
2023-05-08T05:59:26.620Z,66.35
2023-05-08T06:00:26.668Z,66.24
2023-05-08T06:01:26.615Z,66.44
2023-05-08T06:02:26.702Z,67.35
2023-05-08T06:03:26.680Z,68.57
2023-05-08T06:04:26.675Z,69.38
2023-05-08T06:05:26.566Z,71.40
2023-05-08T06:06:26.549Z,72.41
2023-05-08T06:07:26.562Z,74.23
2023-05-08T06:08:26.510Z,74.84
2023-05-08T06:09:26.562Z,75.14
2023-05-08T06:10:26.519Z,75.34
2023-05-08T06:11:26.450Z,75.24
2023-05-08T06:12:26.460Z,75.14
2023-05-08T06:13:26.555Z,75.34
2023-05-08T06:14:26.471Z,75.34
2023-05-08T06:15:26.431Z,75.14
2023-05-08T06:16:26.429Z,74.13
2023-05-08T06:17:26.721Z,73.02
2023-05-08T06:18:26.436Z,74.84
2023-05-08T06:19:26.394Z,75.55
2023-05-08T06:20:26.681Z,75.65
2023-05-08T06:21:26.347Z,75.34
2023-05-08T06:22:26.308Z,75.14
2023-05-08T06:23:26.344Z,75.24
2023-05-08T06:24:26.359Z,75.55
2023-05-08T06:25:26.272Z,76.86
2023-05-08T06:26:26.314Z,76.86
2023-05-08T06:27:26.257Z,77.26
2023-05-08T06:28:26.282Z,77.17
2023-05-08T06:29:26.206Z,75.75
2023-05-08T06:30:26.313Z,76.26
2023-05-08T06:31:26.353Z,76.66
2023-05-08T06:32:26.193Z,77.43
2023-05-08T06:33:27.118Z,77.73
2023-05-08T06:34:26.172Z,78.44
2023-05-08T06:35:26.147Z,76.72
2023-05-08T06:36:26.136Z,76.82
2023-05-08T06:37:26.117Z,77.43
2023-05-08T06:38:26.089Z,76.82
2023-05-08T06:39:26.081Z,78.99
2023-05-08T06:40:26.079Z,78.08
2023-05-08T06:41:26.053Z,77.77
2023-05-08T06:42:26.054Z,76.05
2023-05-08T06:43:26.026Z,77.26
2023-05-08T06:44:26.022Z,76.86
2023-05-08T06:45:26.011Z,77.43
2023-05-08T06:46:26.095Z,76.93
2023-05-08T06:47:25.978Z,75.81
2023-05-08T06:48:25.962Z,76.32
2023-05-08T06:49:25.950Z,75.92
2023-05-08T06:50:25.989Z,74.40
2023-05-08T06:51:25.961Z,74.30
2023-05-08T06:52:25.977Z,75.51
2023-05-08T06:53:25.902Z,75.27
2023-05-08T06:54:25.885Z,74.97
2023-05-08T06:55:25.869Z,77.13
2023-05-08T06:56:25.888Z,76.72
2023-05-08T06:57:25.878Z,77.03
2023-05-08T06:58:25.918Z,76.72
2023-05-08T06:59:25.863Z,76.82
2023-05-08T07:00:25.960Z,77.03
2023-05-08T07:01:25.891Z,77.43
2023-05-08T07:02:25.864Z,76.42
2023-05-08T07:03:26.249Z,75.31
2023-05-08T07:04:25.930Z,74.30
2023-05-08T07:05:25.813Z,75.31
2023-05-08T07:06:25.809Z,76.32
2023-05-08T07:07:25.740Z,76.12
2023-05-08T07:08:25.679Z,76.12
2023-05-08T07:09:25.779Z,76.82
2023-05-08T07:10:25.785Z,76.02
2023-05-08T07:11:25.638Z,76.08
2023-05-08T07:12:25.642Z,76.28
2023-05-08T07:13:25.653Z,76.59
2023-05-08T07:14:25.655Z,77.80
2023-05-08T07:15:26.958Z,79.62
2023-05-08T07:16:25.661Z,78.71
2023-05-08T07:17:25.601Z,77.90
2023-05-08T07:18:25.557Z,78.00
2023-05-08T07:19:25.598Z,77.90
2023-05-08T07:20:25.591Z,78.17
2023-05-08T07:21:25.487Z,79.92
2023-05-08T07:22:25.573Z,79.92
2023-05-08T07:23:25.509Z,79.08
2023-05-08T07:24:25.492Z,78.37
2023-05-08T07:25:25.443Z,80.39
2023-05-08T07:26:25.439Z,80.15
2023-05-08T07:27:25.423Z,79.34
2023-05-08T07:28:25.437Z,80.11
2023-05-08T07:29:25.495Z,81.22
2023-05-08T07:30:25.462Z,81.89
2023-05-08T07:31:25.496Z,83.60
2023-05-08T07:32:25.383Z,83.10
2023-05-08T07:33:25.341Z,84.81
2023-05-08T07:34:25.362Z,86.49
2023-05-08T07:35:25.302Z,86.79
2023-05-08T07:36:25.326Z,89.51
2023-05-08T07:37:25.360Z,90.32
2023-05-08T07:38:25.289Z,90.42
2023-05-08T07:39:25.287Z,89.71
2023-05-08T07:40:25.241Z,89.31
2023-05-08T07:41:25.238Z,89.41
2023-05-08T07:42:25.247Z,89.51
2023-05-08T07:43:25.228Z,89.51
2023-05-08T07:44:25.210Z,89.67
2023-05-08T07:45:25.177Z,90.58
2023-05-08T07:46:25.186Z,89.47
2023-05-08T07:47:25.200Z,89.26
2023-05-08T07:48:25.163Z,89.63
2023-05-08T07:49:25.163Z,90.84
2023-05-08T07:50:25.160Z,90.84
2023-05-08T07:51:25.080Z,91.34
2023-05-08T07:52:25.099Z,91.04
2023-05-08T07:53:25.073Z,90.99
2023-05-08T07:54:25.045Z,92.30
2023-05-08T07:55:25.073Z,92.30
2023-05-08T07:56:25.131Z,91.90
2023-05-08T07:57:25.038Z,92.91
2023-05-08T07:58:25.017Z,93.01
2023-05-08T07:59:25.248Z,93.01
2023-05-08T08:00:24.971Z,92.76
2023-05-08T08:01:24.975Z,92.66
2023-05-08T08:02:25.074Z,92.46
2023-05-08T08:03:25.000Z,93.46
2023-05-08T08:04:25.013Z,93.07
2023-05-08T08:05:24.889Z,92.76
2023-05-08T08:06:24.915Z,92.56
2023-05-08T08:07:25.066Z,92.96
2023-05-08T08:08:24.861Z,93.16
2023-05-08T08:09:24.831Z,92.80
2023-05-08T08:10:24.888Z,92.80
2023-05-08T08:11:24.833Z,92.76
2023-05-08T08:12:24.804Z,92.76
2023-05-08T08:13:24.893Z,93.27
2023-05-08T08:14:24.779Z,92.96
2023-05-08T08:15:24.825Z,92.46
2023-05-08T08:16:24.772Z,92.06
2023-05-08T08:17:26.957Z,92.36
2023-05-08T08:18:24.752Z,92.16
2023-05-08T08:19:24.732Z,92.72
2023-05-08T08:20:24.718Z,93.02
2023-05-08T08:21:24.675Z,93.02
2023-05-08T08:22:24.671Z,93.02
2023-05-08T08:23:24.669Z,92.72
2023-05-08T08:24:24.640Z,93.22
2023-05-08T08:25:24.696Z,93.37
2023-05-08T08:26:24.610Z,93.27
2023-05-08T08:27:24.599Z,92.96
2023-05-08T08:28:24.612Z,92.61
2023-05-08T08:29:24.607Z,92.61
2023-05-08T08:30:24.568Z,92.61
2023-05-08T08:31:24.581Z,92.52
2023-05-08T08:32:24.561Z,93.12
2023-05-08T08:33:24.524Z,92.72
2023-05-08T08:34:24.543Z,93.02
2023-05-08T08:35:24.508Z,92.82
2023-05-08T08:36:24.490Z,92.82
2023-05-08T08:37:24.451Z,92.11
2023-05-08T08:38:24.455Z,92.61
2023-05-08T08:39:24.470Z,93.22
2023-05-08T08:40:24.432Z,93.12
2023-05-08T08:41:24.398Z,92.97
2023-05-08T08:42:24.402Z,92.68
2023-05-08T08:43:24.375Z,93.38
2023-05-08T08:44:24.364Z,92.97
2023-05-08T08:45:24.354Z,93.02
2023-05-08T08:46:24.410Z,92.72
2023-05-08T08:47:24.352Z,93.52
2023-05-08T08:48:24.341Z,93.22
2023-05-08T08:49:24.301Z,93.52
2023-05-08T08:50:24.286Z,93.42
2023-05-08T08:51:24.279Z,93.32
2023-05-08T08:52:24.255Z,92.97
2023-05-08T08:53:24.239Z,92.97
2023-05-08T08:54:24.233Z,93.13
2023-05-08T08:55:24.208Z,93.03
2023-05-08T08:56:24.225Z,93.03
2023-05-08T08:57:24.206Z,93.13
2023-05-08T08:58:24.171Z,93.33
2023-05-08T08:59:24.194Z,93.13
2023-05-08T09:00:24.147Z,93.03
2023-05-08T09:01:24.179Z,92.93
2023-05-08T09:02:24.319Z,93.23
2023-05-08T09:03:24.197Z,93.38
2023-05-08T09:04:24.111Z,93.18
2023-05-08T09:05:24.074Z,93.08
2023-05-08T09:06:24.082Z,93.08
2023-05-08T09:07:24.054Z,92.88
2023-05-08T09:08:24.035Z,93.08
2023-05-08T09:09:24.019Z,93.38
2023-05-08T09:10:24.010Z,93.18
2023-05-08T09:11:24.028Z,93.22
2023-05-08T09:12:23.982Z,93.22
2023-05-08T09:13:24.040Z,93.22
2023-05-08T09:14:23.951Z,93.38
2023-05-08T09:15:23.964Z,93.18
2023-05-08T09:16:23.984Z,93.32
2023-05-08T09:17:23.926Z,92.77
2023-05-08T09:18:23.907Z,93.28
2023-05-08T09:19:27.077Z,93.08
2023-05-08T09:20:23.973Z,93.03
2023-05-08T09:21:23.965Z,93.13
2023-05-08T09:22:23.842Z,93.09
2023-05-08T09:23:23.853Z,93.19
2023-05-08T09:24:23.840Z,93.29
2023-05-08T09:25:23.842Z,92.89
2023-05-08T09:26:23.799Z,93.13
2023-05-08T09:27:23.808Z,93.28
2023-05-08T09:28:23.793Z,93.18
2023-05-08T09:29:23.760Z,93.23
2023-05-08T09:30:23.812Z,93.33
2023-05-08T09:31:23.793Z,93.13
2023-05-08T09:32:23.769Z,93.39
2023-05-08T09:33:23.732Z,92.99
2023-05-08T09:34:23.694Z,93.19
2023-05-08T09:35:23.662Z,93.13
2023-05-08T09:36:23.661Z,93.13
2023-05-08T09:37:23.634Z,93.23
2023-05-08T09:38:23.645Z,92.99
2023-05-08T09:39:23.619Z,92.99
2023-05-08T09:40:23.608Z,93.29
2023-05-08T09:41:23.583Z,93.19
2023-05-08T09:42:23.584Z,92.99
2023-05-08T09:43:23.584Z,92.84
2023-05-08T09:44:23.549Z,92.54
2023-05-08T09:45:23.525Z,92.84
2023-05-08T09:46:23.868Z,92.84
2023-05-08T09:47:23.698Z,92.99
2023-05-08T09:48:23.510Z,92.58
2023-05-08T09:49:23.502Z,92.84
2023-05-08T09:50:23.467Z,92.99
2023-05-08T09:51:23.501Z,92.69
2023-05-08T09:52:23.437Z,92.89
2023-05-08T09:53:23.435Z,92.94
2023-05-08T09:54:23.423Z,92.84
2023-05-08T09:55:23.389Z,92.80
2023-05-08T09:56:23.385Z,92.50
2023-05-08T09:57:23.409Z,92.60
2023-05-08T09:58:23.369Z,92.20
2023-05-08T09:59:23.344Z,92.20
2023-05-08T10:00:23.334Z,92.30
2023-05-08T10:01:23.406Z,92.20
2023-05-08T10:02:23.366Z,92.20
2023-05-08T10:03:23.340Z,92.10
2023-05-08T10:04:23.275Z,92.30
2023-05-08T10:05:23.350Z,92.50
2023-05-08T10:06:23.282Z,92.30
2023-05-08T10:07:23.243Z,92.10
2023-05-08T10:08:23.226Z,92.00
2023-05-08T10:09:23.209Z,92.10
2023-05-08T10:10:23.203Z,92.20
2023-05-08T10:11:23.202Z,91.54
2023-05-08T10:12:23.167Z,91.44
2023-05-08T10:13:23.275Z,92.10
2023-05-08T10:14:23.152Z,92.50
2023-05-08T10:15:23.134Z,92.25
2023-05-08T10:16:23.185Z,92.15
2023-05-08T10:17:23.140Z,91.81
2023-05-08T10:18:23.094Z,91.61
2023-05-08T10:19:23.081Z,90.65
2023-05-08T10:20:23.142Z,90.61
2023-05-08T10:21:23.064Z,90.61
2023-05-08T10:22:23.041Z,90.81
2023-05-08T10:23:23.024Z,90.77
2023-05-08T10:24:23.001Z,90.96
2023-05-08T10:25:23.020Z,90.16
2023-05-08T10:26:23.039Z,90.36
2023-05-08T10:27:22.966Z,89.86
2023-05-08T10:28:22.958Z,89.56
2023-05-08T10:29:22.950Z,89.66
2023-05-08T10:30:22.942Z,89.96
2023-05-08T10:31:22.942Z,90.12
2023-05-08T10:32:22.991Z,89.42
2023-05-08T10:33:22.887Z,89.28
2023-05-08T10:34:22.862Z,89.87
2023-05-08T10:35:22.885Z,89.58
2023-05-08T10:36:22.847Z,89.78
2023-05-08T10:37:22.833Z,88.68
2023-05-08T10:38:22.815Z,89.07
2023-05-08T10:39:22.829Z,88.57
2023-05-08T10:40:22.805Z,88.53
2023-05-08T10:41:22.777Z,88.79
2023-05-08T10:42:22.768Z,87.59
2023-05-08T10:43:22.758Z,87.79
2023-05-08T10:44:22.793Z,87.39
2023-05-08T10:45:22.725Z,87.69
2023-05-08T10:46:22.733Z,87.79
2023-05-08T10:47:22.714Z,87.79
2023-05-08T10:48:22.681Z,87.75
2023-05-08T10:49:22.710Z,87.35
2023-05-08T10:50:22.675Z,86.31
2023-05-08T10:51:22.663Z,84.61
2023-05-08T10:52:22.644Z,83.45
2023-05-08T10:53:22.647Z,86.49
2023-05-08T10:54:22.631Z,86.89
2023-05-08T10:55:22.625Z,86.19
2023-05-08T10:56:22.574Z,86.59
2023-05-08T10:57:22.575Z,85.65
2023-05-08T10:58:22.566Z,85.55
2023-05-08T10:59:22.544Z,85.65
2023-05-08T11:00:22.522Z,84.65
2023-05-08T11:01:22.552Z,82.09
2023-05-08T11:02:22.497Z,83.81
2023-05-08T11:03:31.168Z,83.51
2023-05-08T11:04:23.634Z,83.27
2023-05-08T11:05:22.453Z,82.56
2023-05-08T11:06:22.441Z,80.78
2023-05-08T11:07:22.443Z,73.97
2023-05-08T11:08:22.461Z,68.33
2023-05-08T11:09:22.426Z,68.99
2023-05-08T11:10:22.386Z,68.20
2023-05-08T11:11:22.381Z,67.00
2023-05-08T11:12:22.383Z,65.62
2023-05-08T11:13:22.395Z,62.02
2023-05-08T11:14:22.324Z,62.15
2023-05-08T11:15:24.126Z,58.19
2023-05-08T11:16:22.393Z,59.76
2023-05-08T11:17:22.385Z,60.63
2023-05-08T11:18:22.275Z,60.44
2023-05-08T11:19:22.314Z,57.93
2023-05-08T11:20:22.250Z,57.86
2023-05-08T11:21:22.271Z,56.48
2023-05-08T11:22:22.241Z,58.03
2023-05-08T11:23:22.208Z,57.97
2023-05-08T11:24:22.205Z,56.77
2023-05-08T11:25:22.218Z,57.31
2023-05-08T11:26:22.191Z,56.30
2023-05-08T11:27:22.196Z,56.74
2023-05-08T11:28:22.148Z,54.34
2023-05-08T11:29:22.136Z,53.30
2023-05-08T11:30:22.123Z,54.49
2023-05-08T11:31:22.181Z,54.49
2023-05-08T11:32:22.122Z,56.07
2023-05-08T11:33:22.084Z,54.53
2023-05-08T11:34:22.062Z,52.80
2023-05-08T11:35:22.097Z,53.79
2023-05-08T11:36:22.083Z,52.58
2023-05-08T11:37:22.036Z,53.05
2023-05-08T11:38:22.038Z,51.37
2023-05-08T11:39:22.017Z,50.19
2023-05-08T11:40:22.005Z,51.00
2023-05-08T11:41:22.021Z,51.77
2023-05-08T11:42:21.966Z,51.13
2023-05-08T11:43:21.948Z,52.58
2023-05-08T11:44:21.934Z,53.45
2023-05-08T11:45:22.007Z,54.02
2023-05-08T11:46:21.944Z,55.39
2023-05-08T11:47:22.157Z,57.53
2023-05-08T11:48:21.881Z,57.68
2023-05-08T11:49:26.036Z,59.09
2023-05-08T11:50:22.882Z,59.03
2023-05-08T11:51:21.860Z,58.41
2023-05-08T11:52:21.828Z,61.23
2023-05-08T11:53:21.820Z,62.35
2023-05-08T11:54:21.821Z,62.26
2023-05-08T11:55:21.793Z,62.75
2023-05-08T11:56:21.779Z,60.93
2023-05-08T11:57:21.768Z,63.25
2023-05-08T11:58:21.766Z,63.02
2023-05-08T11:59:21.764Z,60.43
2023-05-08T12:00:21.772Z,60.33
2023-05-08T12:01:21.729Z,60.11
2023-05-08T12:02:21.767Z,60.14
2023-05-08T12:03:21.854Z,60.64
2023-05-08T12:04:21.899Z,60.08
2023-05-08T12:05:21.697Z,58.24
2023-05-08T12:06:21.674Z,59.82
2023-05-08T12:07:21.640Z,62.48
2023-05-08T12:08:21.639Z,63.50
2023-05-08T12:09:21.629Z,67.99
2023-05-08T12:10:21.581Z,65.40
2023-05-08T12:11:21.589Z,67.80
2023-05-08T12:12:21.584Z,67.80
2023-05-08T12:13:21.633Z,66.30
2023-05-08T12:14:21.538Z,69.23
2023-05-08T12:15:21.539Z,70.83
2023-05-08T12:16:21.533Z,72.16
2023-05-08T12:17:21.694Z,71.29
2023-05-08T12:18:21.509Z,70.19
2023-05-08T12:19:21.483Z,68.82
2023-05-08T12:20:21.458Z,69.23
2023-05-08T12:21:21.450Z,70.43
2023-05-08T12:22:21.481Z,68.69
2023-05-08T12:23:21.423Z,68.89
2023-05-08T12:24:21.400Z,68.46
2023-05-08T12:25:21.400Z,71.16
2023-05-08T12:26:21.411Z,70.16
2023-05-08T12:27:21.393Z,70.86
2023-05-08T12:28:21.381Z,72.16
2023-05-08T12:29:21.358Z,68.09
2023-05-08T12:30:21.325Z,68.52
2023-05-08T12:31:21.406Z,72.03
2023-05-08T12:32:21.309Z,70.43
2023-05-08T12:33:21.300Z,71.73
2023-05-08T12:34:21.275Z,73.33
2023-05-08T12:35:21.270Z,73.22
2023-05-08T12:36:21.305Z,71.92
2023-05-08T12:37:21.243Z,72.63
2023-05-08T12:38:21.231Z,73.26
2023-05-08T12:39:21.386Z,75.83
2023-05-08T12:40:21.240Z,72.33
2023-05-08T12:41:21.219Z,77.93
2023-05-08T12:42:21.184Z,75.83
2023-05-08T12:43:21.162Z,74.83
2023-05-08T12:44:21.146Z,76.89
2023-05-08T12:45:21.188Z,72.99
2023-05-08T12:46:21.193Z,75.29
2023-05-08T12:47:21.141Z,74.16
2023-05-08T12:48:21.097Z,75.26
2023-05-08T12:49:21.082Z,71.62
2023-05-08T12:50:21.106Z,71.83
2023-05-08T12:51:21.064Z,72.13
2023-05-08T12:52:21.036Z,72.32